sensor_id;sensor_type;location;lat;lon;timestamp;P1;durP1;ratioP1;P2;durP2;ratioP2
28605;SDS011;46498;49.968;7.754;2023-01-10T00:00:54;0.65;;;0.40;;
28605;SDS011;46498;49.968;7.754;2023-01-10T00:05:55;0.85;;;0.47;;
28605;SDS011;46498;49.968;7.754;2023-01-10T00:10:56;1.35;;;0.70;;
28605;SDS011;46498;49.968;7.754;2023-01-10T00:15:57;1.45;;;0.70;;
28605;SDS011;46498;49.968;7.754;2023-01-10T00:20:58;1.98;;;0.80;;
28605;SDS011;46498;49.968;7.754;2023-01-10T00:25:58;2.85;;;0.80;;
28605;SDS011;46498;49.968;7.754;2023-01-10T00:30:59;2.08;;;1.00;;
28605;SDS011;46498;49.968;7.754;2023-01-10T00:36:06;3.70;;;1.20;;
28605;SDS011;46498;49.968;7.754;2023-01-10T00:41:07;2.17;;;0.82;;
28605;SDS011;46498;49.968;7.754;2023-01-10T00:48:56;7.55;;;1.98;;
28605;SDS011;46498;49.968;7.754;2023-01-10T00:53:56;9.15;;;1.73;;
28605;SDS011;46498;49.968;7.754;2023-01-10T00:58:57;7.10;;;1.37;;
28605;SDS011;46498;49.968;7.754;2023-01-10T01:03:58;5.18;;;1.30;;
28605;SDS011;46498;49.968;7.754;2023-01-10T01:08:59;6.20;;;1.37;;
28605;SDS011;46498;49.968;7.754;2023-01-10T01:14:00;7.87;;;2.03;;
28605;SDS011;46498;49.968;7.754;2023-01-10T01:19:01;8.57;;;2.05;;
28605;SDS011;46498;49.968;7.754;2023-01-10T01:24:02;8.13;;;2.22;;
28605;SDS011;46498;49.968;7.754;2023-01-10T01:29:03;6.00;;;1.85;;
28605;SDS011;46498;49.968;7.754;2023-01-10T01:34:03;9.52;;;1.83;;
28605;SDS011;46498;49.968;7.754;2023-01-10T01:39:04;10.95;;;2.20;;
28605;SDS011;46498;49.968;7.754;2023-01-10T01:44:15;8.98;;;2.10;;
28605;SDS011;46498;49.968;7.754;2023-01-10T01:49:19;8.05;;;2.17;;
28605;SDS011;46498;49.968;7.754;2023-01-10T01:54:25;6.35;;;2.03;;
28605;SDS011;46498;49.968;7.754;2023-01-10T01:59:32;7.95;;;1.92;;
28605;SDS011;46498;49.968;7.754;2023-01-10T02:04:39;5.35;;;1.60;;
28605;SDS011;46498;49.968;7.754;2023-01-10T02:09:49;4.65;;;1.62;;
28605;SDS011;46498;49.968;7.754;2023-01-10T02:14:54;6.82;;;2.20;;
28605;SDS011;46498;49.968;7.754;2023-01-10T02:19:59;9.10;;;2.00;;
28605;SDS011;46498;49.968;7.754;2023-01-10T02:45:58;8.35;;;3.03;;
28605;SDS011;46498;49.968;7.754;2023-01-10T02:51:10;7.93;;;2.50;;
28605;SDS011;46498;49.968;7.754;2023-01-10T03:03:57;12.73;;;3.60;;
28605;SDS011;46498;49.968;7.754;2023-01-10T03:09:31;12.00;;;4.12;;
28605;SDS011;46498;49.968;7.754;2023-01-10T03:14:56;18.20;;;4.68;;
28605;SDS011;46498;49.968;7.754;2023-01-10T03:19:59;16.87;;;4.43;;
28605;SDS011;46498;49.968;7.754;2023-01-10T03:25:05;13.60;;;4.55;;
28605;SDS011;46498;49.968;7.754;2023-01-10T03:30:43;17.83;;;4.57;;
28605;SDS011;46498;49.968;7.754;2023-01-10T03:35:54;19.95;;;4.22;;
28605;SDS011;46498;49.968;7.754;2023-01-10T03:44:39;15.80;;;4.53;;
28605;SDS011;46498;49.968;7.754;2023-01-10T03:50:42;16.80;;;3.55;;
28605;SDS011;46498;49.968;7.754;2023-01-10T03:55:45;16.17;;;3.95;;
28605;SDS011;46498;49.968;7.754;2023-01-10T04:00:46;10.40;;;3.40;;
28605;SDS011;46498;49.968;7.754;2023-01-10T04:05:47;15.63;;;3.22;;
28605;SDS011;46498;49.968;7.754;2023-01-10T04:10:48;13.60;;;3.30;;
28605;SDS011;46498;49.968;7.754;2023-01-10T04:15:49;17.25;;;3.12;;
28605;SDS011;46498;49.968;7.754;2023-01-10T04:20:50;20.05;;;3.55;;
28605;SDS011;46498;49.968;7.754;2023-01-10T04:25:52;18.02;;;3.60;;
28605;SDS011;46498;49.968;7.754;2023-01-10T04:30:53;14.00;;;3.00;;
28605;SDS011;46498;49.968;7.754;2023-01-10T04:35:54;12.68;;;3.33;;
28605;SDS011;46498;49.968;7.754;2023-01-10T04:40:55;14.55;;;3.40;;
28605;SDS011;46498;49.968;7.754;2023-01-10T04:45:56;21.55;;;4.18;;
28605;SDS011;46498;49.968;7.754;2023-01-10T04:50:58;9.18;;;2.65;;
28605;SDS011;46498;49.968;7.754;2023-01-10T04:56:02;18.42;;;2.90;;
28605;SDS011;46498;49.968;7.754;2023-01-10T05:01:10;12.95;;;3.05;;
28605;SDS011;46498;49.968;7.754;2023-01-10T05:06:13;13.45;;;2.62;;
28605;SDS011;46498;49.968;7.754;2023-01-10T05:11:14;16.30;;;3.22;;
28605;SDS011;46498;49.968;7.754;2023-01-10T05:16:15;18.02;;;3.10;;
28605;SDS011;46498;49.968;7.754;2023-01-10T05:21:16;14.23;;;2.72;;
28605;SDS011;46498;49.968;7.754;2023-01-10T05:26:18;14.77;;;2.97;;
28605;SDS011;46498;49.968;7.754;2023-01-10T05:31:20;17.85;;;3.28;;
28605;SDS011;46498;49.968;7.754;2023-01-10T05:36:21;12.25;;;2.62;;
28605;SDS011;46498;49.968;7.754;2023-01-10T05:41:22;15.07;;;2.65;;
28605;SDS011;46498;49.968;7.754;2023-01-10T05:46:23;18.48;;;3.17;;
28605;SDS011;46498;49.968;7.754;2023-01-10T05:51:24;19.45;;;2.60;;
28605;SDS011;46498;49.968;7.754;2023-01-10T05:56:25;17.23;;;2.97;;
28605;SDS011;46498;49.968;7.754;2023-01-10T06:01:26;16.58;;;3.17;;
28605;SDS011;46498;49.968;7.754;2023-01-10T06:06:27;14.87;;;3.22;;
28605;SDS011;46498;49.968;7.754;2023-01-10T06:11:27;18.87;;;2.65;;
28605;SDS011;46498;49.968;7.754;2023-01-10T06:16:29;16.25;;;2.65;;
28605;SDS011;46498;49.968;7.754;2023-01-10T06:21:30;18.87;;;2.72;;
28605;SDS011;46498;49.968;7.754;2023-01-10T06:26:31;19.60;;;2.95;;
28605;SDS011;46498;49.968;7.754;2023-01-10T06:31:32;21.12;;;2.35;;
28605;SDS011;46498;49.968;7.754;2023-01-10T06:36:33;21.90;;;2.08;;
28605;SDS011;46498;49.968;7.754;2023-01-10T06:41:33;17.50;;;2.60;;
28605;SDS011;46498;49.968;7.754;2023-01-10T06:46:34;22.25;;;2.60;;
28605;SDS011;46498;49.968;7.754;2023-01-10T06:51:35;29.65;;;2.78;;
28605;SDS011;46498;49.968;7.754;2023-01-10T06:56:36;20.75;;;3.05;;
28605;SDS011;46498;49.968;7.754;2023-01-10T07:01:37;27.13;;;3.58;;
28605;SDS011;46498;49.968;7.754;2023-01-10T07:06:38;12.30;;;2.25;;
28605;SDS011;46498;49.968;7.754;2023-01-10T07:11:39;25.42;;;6.40;;
28605;SDS011;46498;49.968;7.754;2023-01-10T07:16:40;15.00;;;3.45;;
28605;SDS011;46498;49.968;7.754;2023-01-10T07:21:41;19.37;;;2.47;;
28605;SDS011;46498;49.968;7.754;2023-01-10T07:26:41;17.77;;;2.37;;
28605;SDS011;46498;49.968;7.754;2023-01-10T07:31:42;16.05;;;2.97;;
28605;SDS011;46498;49.968;7.754;2023-01-10T07:36:43;20.98;;;3.00;;
28605;SDS011;46498;49.968;7.754;2023-01-10T07:41:45;20.33;;;2.65;;
28605;SDS011;46498;49.968;7.754;2023-01-10T07:46:48;18.58;;;3.67;;
28605;SDS011;46498;49.968;7.754;2023-01-10T07:51:49;22.33;;;2.60;;
28605;SDS011;46498;49.968;7.754;2023-01-10T07:56:50;18.67;;;2.55;;
28605;SDS011;46498;49.968;7.754;2023-01-10T08:01:51;20.23;;;2.45;;
28605;SDS011;46498;49.968;7.754;2023-01-10T08:06:53;20.87;;;3.13;;
28605;SDS011;46498;49.968;7.754;2023-01-10T08:11:54;20.92;;;3.10;;
28605;SDS011;46498;49.968;7.754;2023-01-10T08:16:55;26.55;;;2.40;;
28605;SDS011;46498;49.968;7.754;2023-01-10T08:21:56;31.30;;;2.97;;
28605;SDS011;46498;49.968;7.754;2023-01-10T08:26:57;18.05;;;2.30;;
28605;SDS011;46498;49.968;7.754;2023-01-10T08:31:58;17.83;;;2.37;;
28605;SDS011;46498;49.968;7.754;2023-01-10T08:36:59;22.85;;;2.90;;
28605;SDS011;46498;49.968;7.754;2023-01-10T08:42:00;21.25;;;2.58;;
28605;SDS011;46498;49.968;7.754;2023-01-10T08:47:01;21.08;;;2.62;;
28605;SDS011;46498;49.968;7.754;2023-01-10T08:52:02;25.33;;;2.42;;
28605;SDS011;46498;49.968;7.754;2023-01-10T08:57:03;20.55;;;2.47;;
28605;SDS011;46498;49.968;7.754;2023-01-10T09:02:04;25.48;;;2.10;;
28605;SDS011;46498;49.968;7.754;2023-01-10T09:07:05;17.10;;;2.12;;
28605;SDS011;46498;49.968;7.754;2023-01-10T09:12:05;18.37;;;2.10;;
28605;SDS011;46498;49.968;7.754;2023-01-10T09:17:57;12.73;;;2.50;;
28605;SDS011;46498;49.968;7.754;2023-01-10T09:23:03;18.02;;;2.85;;
28605;SDS011;46498;49.968;7.754;2023-01-10T09:28:09;16.67;;;2.70;;
28605;SDS011;46498;49.968;7.754;2023-01-10T09:33:10;22.87;;;2.45;;
28605;SDS011;46498;49.968;7.754;2023-01-10T09:38:13;18.05;;;2.40;;
28605;SDS011;46498;49.968;7.754;2023-01-10T09:43:21;22.50;;;3.12;;
28605;SDS011;46498;49.968;7.754;2023-01-10T09:48:44;25.30;;;3.00;;
28605;SDS011;46498;49.968;7.754;2023-01-10T09:53:54;23.67;;;3.28;;
28605;SDS011;46498;49.968;7.754;2023-01-10T09:59:30;18.27;;;2.62;;
28605;SDS011;46498;49.968;7.754;2023-01-10T10:04:36;27.00;;;4.12;;
28605;SDS011;46498;49.968;7.754;2023-01-10T10:09:40;24.02;;;3.72;;
28605;SDS011;46498;49.968;7.754;2023-01-10T10:26:57;18.80;;;3.40;;
28605;SDS011;46498;49.968;7.754;2023-01-10T10:32:23;21.87;;;3.85;;
28605;SDS011;46498;49.968;7.754;2023-01-10T10:37:38;31.50;;;3.80;;
28605;SDS011;46498;49.968;7.754;2023-01-10T10:42:46;27.83;;;3.80;;
28605;SDS011;46498;49.968;7.754;2023-01-10T10:47:52;17.17;;;3.37;;
28605;SDS011;46498;49.968;7.754;2023-01-10T10:53:00;22.90;;;3.20;;
28605;SDS011;46498;49.968;7.754;2023-01-10T10:58:03;18.90;;;2.78;;
28605;SDS011;46498;49.968;7.754;2023-01-10T11:08:28;23.83;;;3.12;;
28605;SDS011;46498;49.968;7.754;2023-01-10T11:13:52;15.38;;;2.45;;
28605;SDS011;46498;49.968;7.754;2023-01-10T11:19:14;19.35;;;2.78;;
28605;SDS011;46498;49.968;7.754;2023-01-10T11:24:32;16.98;;;2.83;;
28605;SDS011;46498;49.968;7.754;2023-01-10T11:29:56;22.52;;;3.80;;
28605;SDS011;46498;49.968;7.754;2023-01-10T11:35:05;16.92;;;3.37;;
28605;SDS011;46498;49.968;7.754;2023-01-10T11:40:14;22.77;;;3.58;;
28605;SDS011;46498;49.968;7.754;2023-01-10T11:45:30;16.73;;;1.90;;
28605;SDS011;46498;49.968;7.754;2023-01-10T11:50:36;16.55;;;2.75;;
28605;SDS011;46498;49.968;7.754;2023-01-10T11:55:44;25.42;;;3.40;;
28605;SDS011;46498;49.968;7.754;2023-01-10T12:00:47;23.15;;;2.92;;
28605;SDS011;46498;49.968;7.754;2023-01-10T12:05:52;24.25;;;3.60;;
28605;SDS011;46498;49.968;7.754;2023-01-10T12:11:06;19.60;;;3.40;;
28605;SDS011;46498;49.968;7.754;2023-01-10T12:16:27;16.00;;;2.22;;
28605;SDS011;46498;49.968;7.754;2023-01-10T12:21:40;27.85;;;2.75;;
28605;SDS011;46498;49.968;7.754;2023-01-10T12:26:43;21.27;;;3.07;;
28605;SDS011;46498;49.968;7.754;2023-01-10T12:31:45;21.05;;;3.75;;
28605;SDS011;46498;49.968;7.754;2023-01-10T12:36:52;22.70;;;2.78;;
28605;SDS011;46498;49.968;7.754;2023-01-10T12:42:13;20.75;;;3.28;;
28605;SDS011;46498;49.968;7.754;2023-01-10T12:47:47;24.45;;;3.37;;
28605;SDS011;46498;49.968;7.754;2023-01-10T12:53:05;31.05;;;3.72;;
28605;SDS011;46498;49.968;7.754;2023-01-10T13:04:57;25.35;;;3.83;;
28605;SDS011;46498;49.968;7.754;2023-01-10T13:10:02;30.85;;;5.03;;
28605;SDS011;46498;49.968;7.754;2023-01-10T13:15:09;25.27;;;3.87;;
28605;SDS011;46498;49.968;7.754;2023-01-10T13:25:48;25.70;;;6.60;;
28605;SDS011;46498;49.968;7.754;2023-01-10T13:30:55;29.80;;;5.47;;
28605;SDS011;46498;49.968;7.754;2023-01-10T13:36:11;32.17;;;5.70;;
28605;SDS011;46498;49.968;7.754;2023-01-10T13:41:20;32.30;;;4.62;;
28605;SDS011;46498;49.968;7.754;2023-01-10T13:46:41;26.42;;;4.75;;
28605;SDS011;46498;49.968;7.754;2023-01-10T13:58:38;26.52;;;6.15;;
28605;SDS011;46498;49.968;7.754;2023-01-10T14:03:58;28.23;;;5.12;;
28605;SDS011;46498;49.968;7.754;2023-01-10T14:09:04;27.30;;;4.07;;
28605;SDS011;46498;49.968;7.754;2023-01-10T14:14:30;32.75;;;4.22;;
28605;SDS011;46498;49.968;7.754;2023-01-10T14:19:34;28.67;;;5.05;;
28605;SDS011;46498;49.968;7.754;2023-01-10T14:24:39;32.10;;;4.47;;
28605;SDS011;46498;49.968;7.754;2023-01-10T14:29:50;28.67;;;4.00;;
28605;SDS011;46498;49.968;7.754;2023-01-10T14:34:59;25.98;;;4.05;;
28605;SDS011;46498;49.968;7.754;2023-01-10T14:40:03;20.10;;;3.45;;
28605;SDS011;46498;49.968;7.754;2023-01-10T14:45:28;28.08;;;3.67;;
28605;SDS011;46498;49.968;7.754;2023-01-10T14:50:33;33.90;;;6.00;;
28605;SDS011;46498;49.968;7.754;2023-01-10T14:55:40;28.40;;;6.40;;
28605;SDS011;46498;49.968;7.754;2023-01-10T15:00:43;30.67;;;3.00;;
28605;SDS011;46498;49.968;7.754;2023-01-10T15:05:47;30.10;;;3.03;;
28605;SDS011;46498;49.968;7.754;2023-01-10T15:10:51;27.25;;;4.50;;
28605;SDS011;46498;49.968;7.754;2023-01-10T15:15:55;33.70;;;3.75;;
28605;SDS011;46498;49.968;7.754;2023-01-10T15:20:57;32.42;;;3.85;;
28605;SDS011;46498;49.968;7.754;2023-01-10T15:26:00;37.17;;;4.87;;
28605;SDS011;46498;49.968;7.754;2023-01-10T15:31:04;23.35;;;3.62;;
28605;SDS011;46498;49.968;7.754;2023-01-10T15:36:11;28.75;;;3.87;;
28605;SDS011;46498;49.968;7.754;2023-01-10T15:41:16;31.52;;;3.80;;
28605;SDS011;46498;49.968;7.754;2023-01-10T15:46:20;28.05;;;3.97;;
28605;SDS011;46498;49.968;7.754;2023-01-10T15:52:24;25.15;;;3.85;;
28605;SDS011;46498;49.968;7.754;2023-01-10T15:57:28;28.30;;;4.47;;
28605;SDS011;46498;49.968;7.754;2023-01-10T16:02:32;21.45;;;3.47;;
28605;SDS011;46498;49.968;7.754;2023-01-10T16:07:34;29.90;;;4.00;;
28605;SDS011;46498;49.968;7.754;2023-01-10T16:12:41;27.45;;;5.00;;
28605;SDS011;46498;49.968;7.754;2023-01-10T16:18:01;21.48;;;3.42;;
28605;SDS011;46498;49.968;7.754;2023-01-10T16:23:02;19.90;;;2.85;;
28605;SDS011;46498;49.968;7.754;2023-01-10T16:28:09;21.52;;;3.17;;
28605;SDS011;46498;49.968;7.754;2023-01-10T16:33:12;17.48;;;3.92;;
28605;SDS011;46498;49.968;7.754;2023-01-10T16:38:19;20.90;;;3.10;;
28605;SDS011;46498;49.968;7.754;2023-01-10T16:43:21;28.27;;;4.17;;
28605;SDS011;46498;49.968;7.754;2023-01-10T16:48:22;29.95;;;3.62;;
28605;SDS011;46498;49.968;7.754;2023-01-10T16:53:22;23.75;;;3.42;;
28605;SDS011;46498;49.968;7.754;2023-01-10T16:58:23;24.98;;;3.42;;
28605;SDS011;46498;49.968;7.754;2023-01-10T17:03:24;24.98;;;3.45;;
28605;SDS011;46498;49.968;7.754;2023-01-10T17:08:26;17.47;;;3.03;;
28605;SDS011;46498;49.968;7.754;2023-01-10T17:13:28;20.12;;;3.03;;
28605;SDS011;46498;49.968;7.754;2023-01-10T17:18:33;29.08;;;3.95;;
28605;SDS011;46498;49.968;7.754;2023-01-10T17:23:33;21.33;;;3.12;;
28605;SDS011;46498;49.968;7.754;2023-01-10T17:28:34;27.17;;;2.80;;
28605;SDS011;46498;49.968;7.754;2023-01-10T17:33:35;23.30;;;3.03;;
28605;SDS011;46498;49.968;7.754;2023-01-10T17:38:36;23.70;;;3.12;;
28605;SDS011;46498;49.968;7.754;2023-01-10T17:43:38;18.30;;;2.70;;
28605;SDS011;46498;49.968;7.754;2023-01-10T17:48:39;27.73;;;4.05;;
28605;SDS011;46498;49.968;7.754;2023-01-10T17:53:40;18.77;;;3.83;;
28605;SDS011;46498;49.968;7.754;2023-01-10T17:58:41;21.48;;;3.03;;
28605;SDS011;46498;49.968;7.754;2023-01-10T18:03:43;35.47;;;3.63;;
28605;SDS011;46498;49.968;7.754;2023-01-10T18:08:44;23.83;;;2.80;;
28605;SDS011;46498;49.968;7.754;2023-01-10T18:13:45;25.15;;;4.05;;
28605;SDS011;46498;49.968;7.754;2023-01-10T18:18:46;23.77;;;3.55;;
28605;SDS011;46498;49.968;7.754;2023-01-10T18:23:47;17.40;;;3.45;;
28605;SDS011;46498;49.968;7.754;2023-01-10T18:28:49;17.50;;;3.50;;
28605;SDS011;46498;49.968;7.754;2023-01-10T18:33:52;13.45;;;2.75;;
28605;SDS011;46498;49.968;7.754;2023-01-10T18:38:53;39.83;;;7.10;;
28605;SDS011;46498;49.968;7.754;2023-01-10T18:43:54;31.95;;;7.32;;
28605;SDS011;46498;49.968;7.754;2023-01-10T18:48:54;24.40;;;3.47;;
28605;SDS011;46498;49.968;7.754;2023-01-10T18:53:55;22.35;;;3.17;;
28605;SDS011;46498;49.968;7.754;2023-01-10T18:58:56;15.38;;;2.12;;
28605;SDS011;46498;49.968;7.754;2023-01-10T19:03:58;26.12;;;4.62;;
28605;SDS011;46498;49.968;7.754;2023-01-10T19:08:59;17.52;;;2.75;;
28605;SDS011;46498;49.968;7.754;2023-01-10T19:14:00;17.45;;;2.40;;
28605;SDS011;46498;49.968;7.754;2023-01-10T19:19:02;14.10;;;2.10;;
28605;SDS011;46498;49.968;7.754;2023-01-10T19:24:13;22.50;;;3.58;;
28605;SDS011;46498;49.968;7.754;2023-01-10T19:29:21;19.77;;;2.30;;
28605;SDS011;46498;49.968;7.754;2023-01-10T19:34:22;21.10;;;3.00;;
28605;SDS011;46498;49.968;7.754;2023-01-10T19:39:23;19.45;;;2.10;;
28605;SDS011;46498;49.968;7.754;2023-01-10T19:44:24;12.93;;;1.90;;
28605;SDS011;46498;49.968;7.754;2023-01-10T19:49:25;11.00;;;1.92;;
28605;SDS011;46498;49.968;7.754;2023-01-10T19:54:27;17.47;;;2.43;;
28605;SDS011;46498;49.968;7.754;2023-01-10T19:59:28;12.15;;;2.87;;
28605;SDS011;46498;49.968;7.754;2023-01-10T20:04:31;18.23;;;2.40;;
28605;SDS011;46498;49.968;7.754;2023-01-10T20:09:32;11.12;;;1.77;;
28605;SDS011;46498;49.968;7.754;2023-01-10T20:14:34;4.28;;;1.20;;
28605;SDS011;46498;49.968;7.754;2023-01-10T20:19:35;10.95;;;1.50;;
28605;SDS011;46498;49.968;7.754;2023-01-10T20:24:35;10.25;;;1.48;;
28605;SDS011;46498;49.968;7.754;2023-01-10T20:29:36;9.20;;;1.52;;
28605;SDS011;46498;49.968;7.754;2023-01-10T20:34:40;13.23;;;1.90;;
28605;SDS011;46498;49.968;7.754;2023-01-10T20:39:42;11.48;;;1.42;;
28605;SDS011;46498;49.968;7.754;2023-01-10T20:44:43;6.82;;;1.30;;
28605;SDS011;46498;49.968;7.754;2023-01-10T20:49:44;7.80;;;1.00;;
28605;SDS011;46498;49.968;7.754;2023-01-10T20:54:44;5.32;;;1.48;;
28605;SDS011;46498;49.968;7.754;2023-01-10T20:59:45;5.37;;;1.20;;
28605;SDS011;46498;49.968;7.754;2023-01-10T21:04:46;5.90;;;1.33;;
28605;SDS011;46498;49.968;7.754;2023-01-10T21:09:50;7.18;;;1.27;;
28605;SDS011;46498;49.968;7.754;2023-01-10T21:14:51;3.50;;;1.10;;
28605;SDS011;46498;49.968;7.754;2023-01-10T21:19:53;4.95;;;0.98;;
28605;SDS011;46498;49.968;7.754;2023-01-10T21:24:54;3.70;;;0.80;;
28605;SDS011;46498;49.968;7.754;2023-01-10T21:29:55;5.55;;;1.37;;
28605;SDS011;46498;49.968;7.754;2023-01-10T21:34:56;2.40;;;0.70;;
28605;SDS011;46498;49.968;7.754;2023-01-10T21:39:57;5.55;;;0.85;;
28605;SDS011;46498;49.968;7.754;2023-01-10T21:44:59;2.17;;;0.43;;
28605;SDS011;46498;49.968;7.754;2023-01-10T21:50:01;4.25;;;0.80;;
28605;SDS011;46498;49.968;7.754;2023-01-10T21:55:03;6.47;;;1.20;;
28605;SDS011;46498;49.968;7.754;2023-01-10T22:00:05;14.80;;;4.50;;
28605;SDS011;46498;49.968;7.754;2023-01-10T22:05:12;3.78;;;1.00;;
28605;SDS011;46498;49.968;7.754;2023-01-10T22:10:13;6.22;;;1.00;;
28605;SDS011;46498;49.968;7.754;2023-01-10T22:15:14;3.28;;;1.12;;
28605;SDS011;46498;49.968;7.754;2023-01-10T22:20:15;3.58;;;1.10;;
28605;SDS011;46498;49.968;7.754;2023-01-10T22:25:16;2.00;;;0.73;;
28605;SDS011;46498;49.968;7.754;2023-01-10T22:30:17;3.08;;;0.70;;
28605;SDS011;46498;49.968;7.754;2023-01-10T22:35:18;3.20;;;1.17;;
28605;SDS011;46498;49.968;7.754;2023-01-10T22:40:19;4.37;;;1.05;;
28605;SDS011;46498;49.968;7.754;2023-01-10T22:45:20;2.97;;;1.00;;
28605;SDS011;46498;49.968;7.754;2023-01-10T22:50:20;5.45;;;0.90;;
28605;SDS011;46498;49.968;7.754;2023-01-10T22:55:21;3.37;;;1.12;;
28605;SDS011;46498;49.968;7.754;2023-01-10T23:00:22;3.53;;;1.10;;
28605;SDS011;46498;49.968;7.754;2023-01-10T23:05:23;6.65;;;0.95;;
28605;SDS011;46498;49.968;7.754;2023-01-10T23:10:24;2.85;;;1.15;;
28605;SDS011;46498;49.968;7.754;2023-01-10T23:15:31;3.55;;;1.02;;
28605;SDS011;46498;49.968;7.754;2023-01-10T23:20:33;5.45;;;1.35;;
28605;SDS011;46498;49.968;7.754;2023-01-10T23:25:34;2.58;;;1.05;;
28605;SDS011;46498;49.968;7.754;2023-01-10T23:30:35;5.10;;;1.17;;
28605;SDS011;46498;49.968;7.754;2023-01-10T23:35:36;4.20;;;1.27;;
28605;SDS011;46498;49.968;7.754;2023-01-10T23:40:37;3.67;;;1.15;;
28605;SDS011;46498;49.968;7.754;2023-01-10T23:45:38;6.57;;;1.35;;
28605;SDS011;46498;49.968;7.754;2023-01-10T23:50:38;3.03;;;1.40;;
28605;SDS011;46498;49.968;7.754;2023-01-10T23:55:39;4.37;;;1.42;;
